Terminal Aerodrome Forecast
Issued by NWS

Home | Current Version | Previous Version | Graphics & Text | Print | Product List | Glossary On
Versions: 1 2 3 4 5 6 7 8 9 10 11 12 13 14 15 16 17 18 19 20 21
000
FTUS43 KBIS 192259 AAB
TAFJMS
TAF AMD
KJMS 192259Z 1923/2018 01014KT 1 1/2SM -SN SCT015 OVC025
     FM200600 36016KT 1 1/2SM -SN OVC015
     FM201200 34015KT P6SM -SN OVC020=

USA.gov is the U.S. government's official web portal to all federal, state and local government web resources and services.